Pearcot, Washington
Current Conditions -  °F | °C
As of 11:55 PM on Wednesday 26 Nov 2014 (Local Time) from KEAT Reporting Station
Overcast Overcast  
Wind Chill:   Ceiling: 200
Heat Index:   Visibility: NA
Dew Point:   Wind: 0mph
Humidity: 89%   Direction: NA
Pressure: 29.93"   Gusts: NA
Location:  47.3635°N, 120.348°W
Report Text: KEAT 270755Z AUTO 00000KT OVC002 03/02 A2993 RMK AO2 SLP144 T00330017 400500028
Loading
Personal Weather Stations






























Interactive Weather Map New forecast layout! Learn more

10-Day Weather Forecast

Advertisements
Track Severe Weather on mobile